createdAt,value
2023-01-02T00:02:14.713Z,16.94
2023-01-02T00:05:21.081Z,18.51
2023-01-02T00:08:30.685Z,20.88
2023-01-02T00:11:37.936Z,21.47
2023-01-02T00:14:44.932Z,20.12
2023-01-02T00:17:51.026Z,20.72
2023-01-02T00:20:58.399Z,20.36
2023-01-02T00:24:07.897Z,19.49
2023-01-02T00:27:14.776Z,18.62
2023-01-02T00:30:21.160Z,18.83
2023-01-02T00:33:28.227Z,18.12
2023-01-02T00:36:34.401Z,17.56
2023-01-02T00:39:44.009Z,17.47
2023-01-02T00:42:50.164Z,16.07
2023-01-02T00:45:57.341Z,16.17
2023-01-02T00:49:03.459Z,15.63
2023-01-02T00:52:10.467Z,15.39
2023-01-02T00:55:19.348Z,15.19
2023-01-02T00:58:26.435Z,14.87
2023-01-02T01:01:32.928Z,15.10
2023-01-02T01:04:41.164Z,15.75
2023-01-02T01:07:47.225Z,15.38
2023-01-02T01:10:56.708Z,15.57
2023-01-02T01:14:02.821Z,16.26
2023-01-02T01:17:10.205Z,16.88
2023-01-02T01:20:16.366Z,17.37
2023-01-02T01:23:25.013Z,18.33
2023-01-02T01:26:33.731Z,19.04
2023-01-02T01:29:40.685Z,19.07
2023-01-02T01:32:46.832Z,18.74
2023-01-02T01:35:53.662Z,17.02
2023-01-02T01:38:59.785Z,16.61
2023-01-02T01:42:09.426Z,16.52
2023-01-02T01:45:19.722Z,16.70
2023-01-02T01:48:27.316Z,16.87
2023-01-02T01:51:40.047Z,16.30
2023-01-02T01:54:54.860Z,16.51
2023-01-02T01:58:09.903Z,18.33
2023-01-02T02:01:20.954Z,17.69
2023-01-02T02:04:30.084Z,18.54
2023-01-02T02:07:45.701Z,22.58
2023-01-02T02:10:53.394Z,21.96
2023-01-02T02:14:04.665Z,21.73
2023-01-02T02:17:26.474Z,24.14
2023-01-02T02:20:49.221Z,25.05
2023-01-02T02:24:32.250Z,22.25
2023-01-02T02:28:16.175Z,20.64
2023-01-02T02:31:42.966Z,24.20
2023-01-02T02:35:05.746Z,23.88
2023-01-02T02:38:24.980Z,22.00
2023-01-02T02:41:42.127Z,21.34
2023-01-02T02:45:05.485Z,20.98
2023-01-02T02:48:26.485Z,20.13
2023-01-02T02:51:45.427Z,18.99
2023-01-02T02:55:04.423Z,17.52
2023-01-02T02:58:12.242Z,18.32
2023-01-02T03:01:26.800Z,18.69
2023-01-02T03:04:38.854Z,17.73
2023-01-02T03:08:05.088Z,21.29
2023-01-02T03:11:12.948Z,23.94
2023-01-02T03:14:33.772Z,26.71
2023-01-02T03:18:06.354Z,26.62
2023-01-02T03:21:31.205Z,25.75
2023-01-02T03:24:44.062Z,21.86
2023-01-02T03:27:55.931Z,23.71
2023-01-02T03:31:06.800Z,24.31
2023-01-02T03:34:19.143Z,25.57
2023-01-02T03:37:36.479Z,25.49
2023-01-02T03:40:52.000Z,23.27
2023-01-02T03:44:03.681Z,26.76
2023-01-02T03:47:31.449Z,29.33
2023-01-02T03:50:50.109Z,31.45
2023-01-02T03:54:03.215Z,35.27
2023-01-02T03:57:25.245Z,35.17
2023-01-02T04:00:44.569Z,36.40
2023-01-02T04:04:01.123Z,38.86
2023-01-02T04:07:16.468Z,37.93
2023-01-02T04:10:27.874Z,38.63
2023-01-02T04:13:45.461Z,40.85
2023-01-02T04:16:55.678Z,36.81
2023-01-02T04:20:10.043Z,33.44
2023-01-02T04:23:22.616Z,33.04
2023-01-02T04:26:41.771Z,33.23
2023-01-02T04:29:47.964Z,32.48
2023-01-02T04:32:57.419Z,32.48
2023-01-02T04:36:12.225Z,30.20
2023-01-02T04:39:20.011Z,25.07
2023-01-02T04:42:30.032Z,20.49
2023-01-02T04:45:36.992Z,18.82
2023-01-02T04:48:43.053Z,22.02
2023-01-02T04:51:49.961Z,23.16
2023-01-02T04:54:56.021Z,22.07
2023-01-02T04:58:05.649Z,25.32
2023-01-02T05:01:13.224Z,65.22
2023-01-02T05:04:20.275Z,65.68
2023-01-02T05:07:26.391Z,37.78
2023-01-02T05:10:33.430Z,32.85
2023-01-02T05:13:42.623Z,30.59
2023-01-02T05:16:49.704Z,28.26
2023-01-02T05:19:56.214Z,25.28
2023-01-02T05:23:15.846Z,24.63
2023-01-02T05:26:22.302Z,25.27
2023-01-02T05:29:32.813Z,26.35
2023-01-02T05:32:39.154Z,28.19
2023-01-02T05:35:46.172Z,30.12
2023-01-02T05:38:52.917Z,42.47
2023-01-02T05:41:59.751Z,44.20
2023-01-02T05:45:10.372Z,44.08
2023-01-02T05:48:18.207Z,46.19
2023-01-02T05:51:24.315Z,41.56
2023-01-02T05:54:31.163Z,41.25
2023-01-02T05:57:38.032Z,43.89
2023-01-02T06:00:47.754Z,45.38
2023-01-02T06:03:57.325Z,44.68
2023-01-02T06:07:04.332Z,46.67
2023-01-02T06:10:12.368Z,47.64
2023-01-02T06:13:19.322Z,41.85
2023-01-02T06:16:29.258Z,39.34
2023-01-02T06:19:36.350Z,41.69
2023-01-02T06:22:42.464Z,43.98
2023-01-02T06:25:50.069Z,52.03
2023-01-02T06:28:59.490Z,80.50
2023-01-02T06:32:09.513Z,156.63
2023-01-02T06:35:15.676Z,65.98
2023-01-02T06:38:22.747Z,45.13
2023-01-02T06:41:28.981Z,43.92
2023-01-02T06:44:35.871Z,42.92
2023-01-02T06:47:44.740Z,44.97
2023-01-02T06:50:51.808Z,47.64
2023-01-02T06:53:58.117Z,50.66
2023-01-02T06:57:05.068Z,51.56
2023-01-02T07:00:14.022Z,53.27
2023-01-02T07:03:23.541Z,44.45
2023-01-02T07:06:30.733Z,41.58
2023-01-02T07:09:38.391Z,41.92
2023-01-02T07:12:45.091Z,47.41
2023-01-02T07:15:52.110Z,52.53
2023-01-02T07:19:00.840Z,88.25
2023-01-02T07:22:07.837Z,174.41
2023-01-02T07:25:14.134Z,155.11
2023-01-02T07:28:21.096Z,159.57
2023-01-02T07:31:29.473Z,139.79
2023-01-02T07:34:39.210Z,99.87
2023-01-02T07:37:45.537Z,89.18
2023-01-02T07:40:52.624Z,77.11
2023-01-02T07:43:59.491Z,73.82
2023-01-02T07:47:06.613Z,75.95
2023-01-02T07:50:15.742Z,76.61
2023-01-02T07:53:22.894Z,76.25
2023-01-02T07:56:30.112Z,71.74
2023-01-02T07:59:37.112Z,68.82
2023-01-02T08:02:43.350Z,70.07
2023-01-02T08:05:53.016Z,70.90
2023-01-02T08:08:59.169Z,68.07
2023-01-02T08:12:06.082Z,70.75
2023-01-02T08:15:13.346Z,71.83
2023-01-02T08:18:20.418Z,76.39
2023-01-02T08:21:30.177Z,75.22
2023-01-02T08:24:37.341Z,70.74
2023-01-02T08:27:45.086Z,64.85
2023-01-02T08:30:52.095Z,67.46
2023-01-02T08:33:58.311Z,72.43
2023-01-02T08:37:07.777Z,70.26
2023-01-02T08:40:15.532Z,69.27
2023-01-02T08:43:22.430Z,68.10
2023-01-02T08:46:28.530Z,61.65
2023-01-02T08:49:35.743Z,54.35
2023-01-02T08:52:44.525Z,49.58
2023-01-02T08:55:51.432Z,48.30
2023-01-02T08:59:00.282Z,48.47
2023-01-02T09:02:07.235Z,50.63
2023-01-02T09:05:13.743Z,50.89
2023-01-02T09:08:23.247Z,49.48
2023-01-02T09:11:32.827Z,49.62
2023-01-02T09:14:39.773Z,49.95
2023-01-02T09:17:47.975Z,50.36
2023-01-02T09:34:06.067Z,53.43
2023-01-02T09:37:12.964Z,51.22
2023-01-02T09:40:19.386Z,47.61
2023-01-02T09:43:37.380Z,45.74
2023-01-02T09:46:53.823Z,43.64
2023-01-02T09:50:10.388Z,36.90
2023-01-02T09:53:19.692Z,33.13
2023-01-02T09:56:36.196Z,31.54
2023-01-02T09:59:55.847Z,34.71
2023-01-02T10:03:19.904Z,35.14
2023-01-02T10:06:42.912Z,37.30
2023-01-02T10:10:04.978Z,35.55
2023-01-02T10:13:44.212Z,35.35
2023-01-02T10:16:59.331Z,28.89
2023-01-02T10:20:23.794Z,28.54
2023-01-02T10:23:43.888Z,29.41
2023-01-02T10:26:56.591Z,26.68
2023-01-02T10:30:18.346Z,36.92
2023-01-02T10:33:34.186Z,36.93
2023-01-02T10:36:46.406Z,35.47
2023-01-02T10:39:55.534Z,35.19
2023-01-02T10:43:04.673Z,34.33
2023-01-02T10:46:10.884Z,29.59
2023-01-02T10:49:19.869Z,26.66
2023-01-02T10:52:35.865Z,24.92
2023-01-02T10:55:47.197Z,22.82
2023-01-02T10:58:56.095Z,22.64
2023-01-02T11:02:04.048Z,22.84
2023-01-02T11:05:22.668Z,21.49
2023-01-02T11:08:40.758Z,20.52
2023-01-02T11:11:54.861Z,19.17
2023-01-02T11:15:25.727Z,17.41
2023-01-02T11:18:37.667Z,15.49
2023-01-02T11:21:46.965Z,14.39
2023-01-02T11:25:04.750Z,15.34
2023-01-02T11:28:23.767Z,19.90
2023-01-02T11:31:30.087Z,21.68
2023-01-02T11:34:41.682Z,19.15
2023-01-02T11:37:55.756Z,15.58
2023-01-02T11:41:05.643Z,12.41
2023-01-02T11:44:20.995Z,12.09
2023-01-02T11:47:39.111Z,11.29
2023-01-02T11:50:47.929Z,11.63
2023-01-02T11:53:59.266Z,12.42
2023-01-02T11:57:07.210Z,11.96
2023-01-02T12:00:23.769Z,11.99
2023-01-02T12:03:33.616Z,11.93
2023-01-02T12:07:12.383Z,12.78
2023-01-02T12:10:52.325Z,13.33
2023-01-02T12:14:16.920Z,10.79
2023-01-02T12:17:38.743Z,12.09
2023-01-02T12:21:03.079Z,11.73
2023-01-02T12:25:05.067Z,10.23
2023-01-02T12:28:41.935Z,10.95
2023-01-02T12:32:19.706Z,12.10
2023-01-02T12:35:55.879Z,11.51
2023-01-02T12:39:33.133Z,11.20
2023-01-02T12:43:27.902Z,11.90
2023-01-02T12:47:16.619Z,12.69
2023-01-02T12:50:56.817Z,25.93
2023-01-02T12:54:37.841Z,12.62
2023-01-02T12:57:59.827Z,10.17
2023-01-02T13:01:24.516Z,11.49
2023-01-02T13:04:40.221Z,10.69
2023-01-02T13:07:56.428Z,10.35
2023-01-02T13:11:09.158Z,12.19
2023-01-02T13:14:23.506Z,15.06
2023-01-02T13:17:54.485Z,14.86
2023-01-02T13:21:16.038Z,11.50
2023-01-02T13:24:30.183Z,10.42
2023-01-02T13:27:37.523Z,9.79
2023-01-02T13:31:19.104Z,10.82
2023-01-02T13:34:30.898Z,11.58
2023-01-02T13:37:38.561Z,14.78
2023-01-02T13:40:48.733Z,14.62
2023-01-02T13:44:03.391Z,13.72
2023-01-02T13:47:25.905Z,14.65
2023-01-02T13:50:41.275Z,15.57
2023-01-02T13:53:50.306Z,18.01
2023-01-02T13:57:34.762Z,19.24
2023-01-02T14:00:53.439Z,17.68
2023-01-02T14:04:36.816Z,17.83
2023-01-02T14:07:52.068Z,15.72
2023-01-02T14:11:10.173Z,17.83
2023-01-02T14:14:30.119Z,16.50
2023-01-02T14:17:56.267Z,18.05
2023-01-02T14:21:02.684Z,16.71
2023-01-02T14:24:17.015Z,19.35
2023-01-02T14:27:34.480Z,24.20
2023-01-02T14:30:46.120Z,23.42
2023-01-02T14:33:59.388Z,26.41
2023-01-02T14:37:07.000Z,30.63
2023-01-02T14:40:21.478Z,28.48
2023-01-02T14:43:40.641Z,25.30
2023-01-02T14:46:51.806Z,21.62
2023-01-02T14:50:05.028Z,23.77
2023-01-02T14:53:23.453Z,26.87
2023-01-02T14:56:39.432Z,25.42
2023-01-02T14:59:49.935Z,26.26
2023-01-02T15:03:17.272Z,25.22
2023-01-02T15:06:41.757Z,31.10
2023-01-02T15:09:55.227Z,22.26
2023-01-02T15:13:07.836Z,21.36
2023-01-02T15:16:15.019Z,22.15
2023-01-02T15:19:30.741Z,21.78
2023-01-02T15:22:40.407Z,26.46
2023-01-02T15:25:46.520Z,34.52
2023-01-02T15:28:59.676Z,35.67
2023-01-02T15:32:06.018Z,27.07
2023-01-02T15:35:25.786Z,29.81
2023-01-02T15:38:32.129Z,27.25
2023-01-02T15:41:49.388Z,24.28
2023-01-02T15:45:09.473Z,22.91
2023-01-02T15:48:19.008Z,22.38
2023-01-02T15:51:40.501Z,26.81
2023-01-02T15:54:50.528Z,26.24
2023-01-02T15:57:58.049Z,28.73
2023-01-02T16:01:21.332Z,30.50
2023-01-02T16:04:31.454Z,29.52
2023-01-02T16:07:42.038Z,26.02
2023-01-02T16:10:51.646Z,26.04
2023-01-02T16:14:22.925Z,26.07
2023-01-02T16:17:32.919Z,31.74
2023-01-02T16:20:40.323Z,29.46
2023-01-02T16:23:57.692Z,29.06
2023-01-02T16:27:06.811Z,28.45
2023-01-02T16:30:38.081Z,26.56
2023-01-02T16:33:48.692Z,27.02
2023-01-02T16:37:25.427Z,28.82
2023-01-02T16:41:03.124Z,30.97
2023-01-02T16:44:15.476Z,29.34
2023-01-02T16:47:22.512Z,28.63
2023-01-02T16:50:30.691Z,33.05
2023-01-02T16:53:38.082Z,35.02
2023-01-02T16:56:47.162Z,36.47
2023-01-02T16:59:54.145Z,37.57
2023-01-02T17:03:00.336Z,31.22
2023-01-02T17:06:15.572Z,29.21
2023-01-02T17:09:21.702Z,28.16
2023-01-02T17:12:31.354Z,31.09
2023-01-02T17:15:37.765Z,29.21
2023-01-02T17:18:45.616Z,31.50
2023-01-02T17:21:52.176Z,32.86
2023-01-02T17:24:59.061Z,31.99
2023-01-02T17:28:08.268Z,31.27
2023-01-02T17:31:23.966Z,31.48
2023-01-02T17:34:31.751Z,31.01
2023-01-02T17:37:39.887Z,34.40
2023-01-02T17:40:47.284Z,32.37
2023-01-02T17:44:02.127Z,32.99
2023-01-02T17:47:48.041Z,34.61
2023-01-02T17:50:36.922Z,37.58
2023-01-02T17:53:46.694Z,38.99
2023-01-02T17:56:53.570Z,37.37
2023-01-02T18:00:02.310Z,34.36
2023-01-02T18:03:19.739Z,31.68
2023-01-02T18:06:25.997Z,32.56
2023-01-02T18:09:32.970Z,31.66
2023-01-02T18:12:39.038Z,28.76
2023-01-02T18:15:48.735Z,28.42
2023-01-02T18:18:55.670Z,28.77
2023-01-02T18:22:03.209Z,30.03
2023-01-02T18:25:24.587Z,28.62
2023-01-02T18:28:33.682Z,28.03
2023-01-02T18:31:47.063Z,28.69
2023-01-02T18:34:59.437Z,27.95
2023-01-02T18:38:21.303Z,25.75
2023-01-02T18:41:31.815Z,25.93
2023-01-02T18:44:38.497Z,27.41
2023-01-02T18:47:49.805Z,28.79
2023-01-02T18:51:02.230Z,33.12
2023-01-02T18:54:31.561Z,30.67
2023-01-02T18:57:46.634Z,28.37
2023-01-02T19:00:53.913Z,26.85
2023-01-02T19:04:27.814Z,27.20
2023-01-02T19:07:38.251Z,25.75
2023-01-02T19:10:48.914Z,26.70
2023-01-02T19:13:58.634Z,28.37
2023-01-02T19:17:18.129Z,27.48
2023-01-02T19:20:29.999Z,27.03
2023-01-02T19:23:52.971Z,25.23
2023-01-02T19:27:02.358Z,24.93
2023-01-02T19:30:31.703Z,26.02
2023-01-02T19:33:48.223Z,24.05
2023-01-02T19:37:16.616Z,27.10
2023-01-02T19:40:26.962Z,25.62
2023-01-02T19:43:35.083Z,26.60
2023-01-02T19:46:42.592Z,27.60
2023-01-02T19:49:49.022Z,28.23
2023-01-02T19:52:58.793Z,25.46
2023-01-02T19:56:04.959Z,26.27
2023-01-02T19:59:12.991Z,26.54
2023-01-02T20:02:23.641Z,26.39
2023-01-02T20:05:31.140Z,26.33
2023-01-02T20:08:42.161Z,24.87
2023-01-02T20:12:07.373Z,23.58
2023-01-02T20:15:17.621Z,22.61
2023-01-02T20:18:24.800Z,23.51
2023-01-02T20:21:31.333Z,23.13
2023-01-02T20:24:41.319Z,23.26
2023-01-02T20:27:47.851Z,23.34
2023-01-02T20:30:54.938Z,22.84
2023-01-02T20:34:01.225Z,23.64
2023-01-02T20:37:08.944Z,24.08
2023-01-02T20:40:17.973Z,22.78
2023-01-02T20:43:24.942Z,22.24
2023-01-02T20:46:31.654Z,22.45
2023-01-02T20:49:38.987Z,23.67
2023-01-02T20:52:45.208Z,22.55
2023-01-02T20:55:55.215Z,22.16
2023-01-02T20:59:02.529Z,21.94
2023-01-02T21:02:09.693Z,22.30
2023-01-02T21:05:16.051Z,22.93
2023-01-02T21:08:23.208Z,22.93
2023-01-02T21:11:32.623Z,23.60
2023-01-02T21:14:40.705Z,24.50
2023-01-02T21:17:46.904Z,23.22
2023-01-02T21:20:56.778Z,23.11
2023-01-02T21:24:03.039Z,23.41
2023-01-02T21:27:13.412Z,22.27
2023-01-02T21:30:19.960Z,21.93
2023-01-02T21:33:30.216Z,21.52
2023-01-02T21:36:37.322Z,21.88
2023-01-02T21:39:45.205Z,22.79
2023-01-02T21:42:54.872Z,22.99
2023-01-02T21:46:01.853Z,24.29
2023-01-02T21:49:07.935Z,23.71
2023-01-02T21:52:15.005Z,23.15
2023-01-02T21:55:21.810Z,22.81
2023-01-02T21:58:31.422Z,23.02
2023-01-02T22:01:37.796Z,21.66
2023-01-02T22:04:45.524Z,25.55
2023-01-02T22:07:52.405Z,25.41
2023-01-02T22:11:19.788Z,22.97
2023-01-02T22:14:33.277Z,20.53
2023-01-02T22:17:41.990Z,20.65
2023-01-02T22:20:48.135Z,20.53
2023-01-02T22:23:55.292Z,21.00
2023-01-02T22:27:07.425Z,21.28
2023-01-02T22:30:22.831Z,21.68
2023-01-02T22:33:33.141Z,21.02
2023-01-02T22:36:40.199Z,21.36
2023-01-02T22:39:46.663Z,21.21
2023-01-02T22:43:02.820Z,22.18
2023-01-02T22:46:32.484Z,21.31
2023-01-02T22:49:43.431Z,23.30
2023-01-02T22:52:50.544Z,23.61
2023-01-02T22:55:58.474Z,22.11
2023-01-02T22:59:04.516Z,22.18
2023-01-02T23:02:21.904Z,22.54
2023-01-02T23:05:27.968Z,22.83
2023-01-02T23:08:34.975Z,22.50
2023-01-02T23:11:41.599Z,22.74
2023-01-02T23:14:49.456Z,24.06
2023-01-02T23:18:10.487Z,23.14
2023-01-02T23:21:19.594Z,23.61
2023-01-02T23:24:29.170Z,22.81
2023-01-02T23:27:36.736Z,23.63
2023-01-02T23:30:44.215Z,24.34
2023-01-02T23:33:53.847Z,23.87
2023-01-02T23:37:10.888Z,24.77
2023-01-02T23:40:18.329Z,25.03
2023-01-02T23:43:25.588Z,24.34
2023-01-02T23:46:34.964Z,23.26
2023-01-02T23:49:43.570Z,24.37
2023-01-02T23:52:50.399Z,24.28
2023-01-02T23:55:56.539Z,24.15
2023-01-02T23:59:06.683Z,24.15
